Time;durP1;ratioP1;P1;durP2;ratioP2;P2;SDS_P1;SDS_P2;PMS_P1;PMS_P2;Temp;Humidity;BMP_temperature;BMP_pressure;BME280_temperature;BME280_humidity;BME280_pressure;Samples;Min_cycle;Max_cycle;Signal;HPM_P1;HPM_P2
2022/08/09 00:02:01;;;;;;;1.55;0.80;;;;;;;17.35;54.08;99252.25;5088629;28;20032;-71
2022/08/09 00:04:27;;;;;;;2.70;0.90;;;;;;;17.33;53.73;99254.41;5086569;28;20067;-72
2022/08/09 00:06:52;;;;;;;1.13;0.90;;;;;;;17.28;54.50;99257.81;5080267;28;20024;-72
2022/08/09 00:09:17;;;;;;;5.95;0.80;;;;;;;17.22;53.74;99247.84;5079226;28;20028;-71
2022/08/09 00:11:44;;;;;;;2.28;0.95;;;;;;;17.24;53.67;99265.69;5089337;28;20027;-72
2022/08/09 00:14:10;;;;;;;2.05;0.90;;;;;;;17.10;53.99;99261.47;5090606;28;20072;-72
2022/08/09 00:16:36;;;;;;;3.28;1.00;;;;;;;17.06;54.08;99257.56;5082083;28;20021;-72
2022/08/09 00:19:01;;;;;;;7.97;1.10;;;;;;;16.91;54.30;99246.25;5089669;28;20089;-72
2022/08/09 00:21:26;;;;;;;3.53;0.88;;;;;;;16.83;55.25;99263.81;5088467;28;20031;-72
2022/08/09 00:23:52;;;;;;;1.23;0.80;;;;;;;16.69;55.56;99271.34;5087814;28;20119;-72
2022/08/09 00:26:17;;;;;;;4.90;1.00;;;;;;;16.63;56.21;99264.03;5081993;28;20032;-72
2022/08/09 00:28:42;;;;;;;4.53;0.80;;;;;;;16.63;56.11;99261.31;5086137;28;20474;-72
2022/08/09 00:31:08;;;;;;;5.05;1.13;;;;;;;16.57;56.09;99273.16;5085128;28;20123;-72
2022/08/09 00:33:34;;;;;;;2.67;1.02;;;;;;;16.56;56.37;99274.25;5084957;28;20020;-72
2022/08/09 00:36:00;;;;;;;2.95;0.80;;;;;;;16.42;56.30;99271.66;5088858;28;20024;-72
2022/08/09 00:38:26;;;;;;;1.38;0.80;;;;;;;16.34;56.35;99269.25;5086833;28;20031;-72
2022/08/09 00:40:52;;;;;;;5.03;0.98;;;;;;;16.49;56.29;99268.84;5081300;28;20515;-72
2022/08/09 00:43:18;;;;;;;1.10;0.88;;;;;;;16.52;56.74;99262.09;5086224;28;20448;-72
2022/08/09 00:45:44;;;;;;;2.80;1.00;;;;;;;16.61;56.44;99258.81;5081653;28;20069;-73
2022/08/09 00:48:09;;;;;;;1.92;1.00;;;;;;;16.60;56.77;99259.03;5077792;28;20403;-72
2022/08/09 00:50:35;;;;;;;5.45;1.00;;;;;;;16.60;57.28;99261.78;5066292;28;20039;-72
2022/08/09 00:53:00;;;;;;;1.92;1.00;;;;;;;16.56;57.07;99260.59;5089538;28;20039;-73
2022/08/09 00:55:25;;;;;;;2.47;1.30;;;;;;;16.50;57.40;99259.59;5081832;28;20093;-72
2022/08/09 00:57:51;;;;;;;2.55;1.10;;;;;;;16.33;58.11;99247.66;5084532;28;20426;-72
2022/08/09 01:00:16;;;;;;;3.20;1.30;;;;;;;16.30;58.24;99259.88;5083790;28;20024;-73
2022/08/09 01:02:50;;;;;;;2.80;1.55;;;;;;;16.24;58.52;99259.94;5066583;28;20446;-72
2022/08/09 01:05:32;;;;;;;3.78;1.30;;;;;;;16.19;58.89;99255.16;5079879;28;20077;-72
2022/08/09 01:08:18;;;;;;;1.40;1.00;;;;;;;16.13;58.91;99262.38;5085066;28;20035;-72
2022/08/09 01:11:26;;;;;;;2.97;1.27;;;;;;;16.16;59.71;99259.19;5083520;28;20028;-72
2022/08/09 01:13:56;;;;;;;3.97;1.30;;;;;;;16.07;59.03;99257.81;5083637;28;20028;-72
2022/08/09 01:16:25;;;;;;;3.97;1.30;;;;;;;16.10;59.70;99260.09;5082374;28;20452;-72
2022/08/09 01:18:53;;;;;;;6.43;1.42;;;;;;;15.99;59.90;99261.69;5085097;28;20680;-72
2022/08/09 01:21:46;;;;;;;1.52;1.20;;;;;;;15.97;59.41;99269.28;5082460;28;20055;-72
2022/08/09 01:24:36;;;;;;;2.90;1.35;;;;;;;16.06;60.11;99274.41;5081536;28;20070;-72
2022/08/09 01:27:06;;;;;;;1.20;1.05;;;;;;;16.07;60.37;99276.09;5082265;28;20036;-72
2022/08/09 01:29:39;;;;;;;2.95;1.10;;;;;;;15.96;61.39;99273.06;5081301;28;20082;-72
2022/08/09 01:32:07;;;;;;;2.22;1.08;;;;;;;15.92;61.97;99271.00;5069276;28;20046;-72
2022/08/09 01:34:36;;;;;;;2.15;1.30;;;;;;;15.82;61.86;99281.63;5083744;28;20081;-73
2022/08/09 01:37:05;;;;;;;2.28;1.17;;;;;;;15.74;61.64;99280.84;5083236;28;20028;-72
2022/08/09 01:39:34;;;;;;;3.35;1.30;;;;;;;15.58;61.63;99267.75;5085495;28;20042;-72
2022/08/09 01:42:01;;;;;;;4.93;1.40;;;;;;;15.52;61.64;99272.22;5090345;28;20028;-72
2022/08/09 01:44:28;;;;;;;2.55;1.25;;;;;;;15.36;62.89;99277.41;5089634;28;20289;-72
2022/08/09 01:46:55;;;;;;;2.47;1.10;;;;;;;15.44;63.35;99286.13;5085533;28;20050;-72
2022/08/09 01:49:21;;;;;;;1.17;0.85;;;;;;;15.38;64.71;99276.13;5093476;28;20038;-72
2022/08/09 01:51:58;;;;;;;1.88;1.52;;;;;;;15.41;65.93;99281.13;5071901;28;20397;-72
2022/08/09 01:54:31;;;;;;;2.72;1.60;;;;;;;15.52;65.52;99274.94;5095246;28;20055;-71
2022/08/09 01:56:58;;;;;;;4.15;1.25;;;;;;;15.38;65.97;99273.41;5105523;28;20032;-72
2022/08/09 01:59:24;;;;;;;3.63;1.50;;;;;;;15.40;66.27;99287.63;5075795;28;20089;-72
2022/08/09 02:01:52;;;;;;;5.07;1.75;;;;;;;15.42;66.14;99287.41;5087167;28;20454;-72
2022/08/09 02:04:20;;;;;;;1.88;1.40;;;;;;;15.59;65.40;99282.22;5091121;28;20031;-73
2022/08/09 02:07:10;;;;;;;4.10;1.20;;;;;;;15.57;65.41;99280.56;5068650;28;20100;-72
2022/08/09 02:09:40;;;;;;;2.33;1.00;;;;;;;15.54;65.49;99281.03;5078028;28;20058;-72
2022/08/09 02:12:08;;;;;;;3.25;1.60;;;;;;;15.52;65.79;99290.47;5079441;28;20020;-72
2022/08/09 02:14:36;;;;;;;1.95;1.05;;;;;;;15.52;64.83;99293.22;5103621;22;20012;-71
2022/08/09 02:17:01;;;;;;;2.95;1.33;;;;;;;15.49;64.27;99282.75;5083378;28;20481;-71
2022/08/09 02:19:27;;;;;;;3.03;1.40;;;;;;;15.36;65.32;99286.44;5087582;28;20098;-71
2022/08/09 02:21:58;;;;;;;3.38;1.40;;;;;;;15.38;66.84;99302.53;5100822;28;20076;-71
2022/08/09 02:24:27;;;;;;;1.48;1.15;;;;;;;15.30;67.19;99287.28;5107294;28;20456;-71
2022/08/09 02:26:55;;;;;;;;;;;;;;;15.26;67.39;99305.16;5090748;28;20069;-71
2022/08/09 02:29:26;;;;;;;1.95;1.10;;;;;;;15.13;68.29;99306.09;5073514;28;20008;-71
2022/08/09 02:31:56;;;;;;;2.72;1.13;;;;;;;14.95;68.98;99295.94;5106628;28;20034;-71
2022/08/09 02:34:27;;;;;;;1.73;1.10;;;;;;;14.92;69.33;99310.00;5076229;28;20028;-71
2022/08/09 02:36:55;;;;;;;2.38;1.20;;;;;;;14.89;67.77;99303.09;5087082;28;20033;-71
2022/08/09 02:39:26;;;;;;;2.42;1.20;;;;;;;14.77;70.24;99298.56;5091528;28;20024;-71
2022/08/09 02:42:01;;;;;;;2.10;1.48;;;;;;;14.54;70.79;99286.34;5091287;28;20420;-71
2022/08/09 02:44:35;;;;;;;2.80;1.15;;;;;;;14.82;70.93;99310.47;5089664;28;20499;-71
2022/08/09 02:47:05;;;;;;;3.63;1.10;;;;;;;14.79;72.61;99310.91;5089757;28;20419;-71
2022/08/09 02:49:34;;;;;;;1.92;1.23;;;;;;;14.89;72.68;99310.44;5089892;28;20036;-71
2022/08/09 02:52:02;;;;;;;2.25;1.30;;;;;;;14.92;71.63;99315.47;5086655;28;20039;-71
2022/08/09 02:54:31;;;;;;;9.60;1.45;;;;;;;14.65;73.75;99291.09;5089669;28;20016;-71
2022/08/09 02:57:01;;;;;;;3.72;1.02;;;;;;;14.46;74.57;99297.44;5088266;28;20036;-71
2022/08/09 02:59:27;;;;;;;2.92;1.25;;;;;;;14.43;76.26;99306.03;5089575;28;20020;-71
2022/08/09 03:01:57;;;;;;;4.78;1.40;;;;;;;14.22;76.90;99275.34;5088723;28;20035;-68
2022/08/09 03:04:24;;;;;;;1.33;1.20;;;;;;;14.33;75.35;99302.94;5082389;28;20027;-67
2022/08/09 03:06:50;;;;;;;3.03;1.10;;;;;;;14.32;76.28;99304.00;5085649;28;20587;-67
2022/08/09 03:09:16;;;;;;;3.80;1.23;;;;;;;14.21;75.95;99303.63;5086974;28;20032;-67
2022/08/09 03:11:42;;;;;;;4.38;1.20;;;;;;;14.12;76.63;99302.19;5082354;28;20109;-67
2022/08/09 03:14:10;;;;;;;2.03;1.50;;;;;;;13.97;77.52;99288.00;5093671;28;20059;-68
2022/08/09 03:16:36;;;;;;;2.75;1.35;;;;;;;13.95;77.56;99298.25;5089711;28;20027;-67
2022/08/09 03:19:02;;;;;;;1.85;1.33;;;;;;;13.93;78.22;99301.19;5071843;28;20021;-67
2022/08/09 03:21:28;;;;;;;1.52;1.00;;;;;;;14.00;80.16;99296.56;5069258;28;20481;-66
2022/08/09 03:23:54;;;;;;;2.90;1.38;;;;;;;14.04;79.21;99280.63;5086837;28;20035;-66
2022/08/09 03:26:19;;;;;;;1.75;1.17;;;;;;;14.02;78.56;99275.44;5072513;28;20028;-66
2022/08/09 03:28:47;;;;;;;2.13;1.20;;;;;;;14.01;78.13;99297.41;5075000;28;20032;-67
2022/08/09 03:31:14;;;;;;;2.10;1.17;;;;;;;13.91;78.34;99297.00;5071620;28;20024;-65
2022/08/09 03:33:40;;;;;;;1.48;1.00;;;;;;;13.80;78.09;99290.31;5091604;28;20039;-65
2022/08/09 03:36:09;;;;;;;1.98;1.20;;;;;;;13.75;79.04;99301.00;5088640;28;20024;-65
2022/08/09 03:38:36;;;;;;;4.43;1.30;;;;;;;13.77;78.53;99297.03;5071593;28;20496;-68
2022/08/09 03:41:01;;;;;;;2.10;1.00;;;;;;;13.84;77.21;99298.91;5070924;28;20036;-68
2022/08/09 03:43:26;;;;;;;1.30;0.90;;;;;;;13.74;77.82;99286.56;5067000;28;20088;-67
2022/08/09 03:45:52;;;;;;;1.23;1.10;;;;;;;13.91;77.93;99306.03;5090379;28;20106;-67
2022/08/09 03:48:22;;;;;;;1.63;1.27;;;;;;;13.88;79.50;99300.97;5069010;28;20054;-66
2022/08/09 03:50:49;;;;;;;1.67;1.48;;;;;;;13.88;81.24;99295.53;5088202;28;20497;-63
2022/08/09 03:53:15;;;;;;;4.93;1.58;;;;;;;13.95;82.76;99309.97;5073981;28;20491;-66
2022/08/09 03:55:40;;;;;;;2.20;1.50;;;;;;;13.97;81.16;99318.75;5086309;28;20024;-69
2022/08/09 03:58:06;;;;;;;2.50;1.30;;;;;;;13.81;81.59;99283.84;5088686;28;20089;-63
2022/08/09 04:00:31;;;;;;;2.63;1.55;;;;;;;13.96;81.29;99318.97;5086577;28;20015;-66
2022/08/09 04:02:58;;;;;;;2.00;1.25;;;;;;;13.85;81.88;99322.34;5069532;28;20078;-66
2022/08/09 04:05:23;;;;;;;2.97;1.73;;;;;;;13.78;82.34;99317.75;5084760;28;20103;-66
2022/08/09 04:07:48;;;;;;;2.75;1.20;;;;;;;13.75;80.23;99325.47;5083236;28;20437;-66
2022/08/09 04:10:15;;;;;;;2.38;1.30;;;;;;;13.72;80.03;99334.06;5086702;28;20040;-66
2022/08/09 04:12:47;;;;;;;1.92;1.33;;;;;;;13.67;82.87;99334.69;5088078;28;20048;-66
2022/08/09 04:15:14;;;;;;;2.03;1.45;;;;;;;13.63;84.29;99343.50;5081499;28;20412;-65
2022/08/09 04:17:40;;;;;;;1.83;1.40;;;;;;;13.62;83.12;99331.75;5086124;28;20036;-64
2022/08/09 04:20:07;;;;;;;3.17;1.27;;;;;;;13.62;82.31;99334.47;5084390;28;20020;-64
2022/08/09 04:22:32;;;;;;;2.55;1.40;;;;;;;13.65;81.93;99341.38;5091733;28;20063;-65
2022/08/09 04:24:58;;;;;;;4.60;1.40;;;;;;;13.48;80.73;99314.63;5067875;28;20016;-66
2022/08/09 04:27:24;;;;;;;1.65;1.30;;;;;;;13.62;81.10;99339.09;5085657;28;20465;-66
2022/08/09 04:29:49;;;;;;;1.88;1.25;;;;;;;13.67;83.21;99340.13;5090324;28;20046;-66
2022/08/09 04:32:14;;;;;;;1.77;1.30;;;;;;;13.73;83.79;99355.63;5068552;28;20118;-66
2022/08/09 04:34:40;;;;;;;2.80;1.52;;;;;;;13.64;83.29;99318.81;5088721;28;20477;-66
2022/08/09 04:37:06;;;;;;;2.03;1.40;;;;;;;13.65;83.49;99322.34;5086264;28;20028;-68
2022/08/09 04:39:32;;;;;;;3.45;1.80;;;;;;;13.89;83.69;99359.78;5086662;28;20385;-66
2022/08/09 04:41:57;;;;;;;2.80;1.63;;;;;;;13.94;83.45;99362.72;5082786;28;20103;-66
2022/08/09 04:44:23;;;;;;;2.90;1.55;;;;;;;13.76;82.85;99330.72;5088001;28;21092;-67
2022/08/09 04:46:48;;;;;;;3.53;1.80;;;;;;;13.99;82.42;99360.19;5090181;28;20020;-64
2022/08/09 04:49:13;;;;;;;4.85;2.35;;;;;;;13.98;81.60;99358.50;5073808;28;20354;-66
2022/08/09 04:51:38;;;;;;;5.13;1.83;;;;;;;14.07;80.72;99345.53;5082066;28;20486;-68
2022/08/09 04:54:04;;;;;;;5.88;2.25;;;;;;;14.28;78.89;99384.41;5068985;28;20435;-61
2022/08/09 04:56:29;;;;;;;5.88;2.22;;;;;;;14.34;78.31;99369.94;5086640;28;20477;-61
2022/08/09 04:58:55;;;;;;;7.53;2.65;;;;;;;14.46;77.76;99384.56;5091115;28;20030;-61
2022/08/09 05:01:21;;;;;;;8.95;2.35;;;;;;;14.50;77.20;99387.69;5088390;28;20480;-63
2022/08/09 05:03:47;;;;;;;2.83;1.92;;;;;;;14.64;76.90;99386.63;5086200;28;20085;-63
2022/08/09 05:06:13;;;;;;;1.65;1.52;;;;;;;14.67;75.56;99372.56;5090014;28;20469;-62
2022/08/09 05:08:39;;;;;;;6.53;1.98;;;;;;;14.92;74.34;99391.75;5087457;28;20123;-62
2022/08/09 05:11:04;;;;;;;2.40;1.60;;;;;;;15.03;73.82;99391.06;5083873;28;20012;-62
2022/08/09 05:13:29;;;;;;;6.22;1.77;;;;;;;15.18;72.72;99393.50;5081014;28;20055;-64
2022/08/09 05:15:55;;;;;;;4.45;1.45;;;;;;;15.19;72.92;99380.69;5075637;28;20020;-62
2022/08/09 05:18:20;;;;;;;5.00;2.33;;;;;;;15.39;72.82;99392.31;5082235;28;20118;-64
2022/08/09 05:20:46;;;;;;;5.47;2.60;;;;;;;15.43;72.56;99389.97;5085014;28;20105;-64
2022/08/09 05:23:11;;;;;;;8.13;2.65;;;;;;;15.44;71.03;99375.28;5086247;28;20027;-61
2022/08/09 05:25:37;;;;;;;6.13;2.83;;;;;;;15.66;70.29;99397.56;5067813;28;20120;-61
2022/08/09 05:28:02;;;;;;;8.18;3.55;;;;;;;15.74;69.71;99397.31;5085721;28;20381;-63
2022/08/09 05:30:28;;;;;;;7.15;3.20;;;;;;;15.77;68.90;99375.03;5070039;28;21237;-62
2022/08/09 05:32:54;;;;;;;8.13;3.03;;;;;;;16.12;67.84;99396.38;5083239;28;20030;-61
2022/08/09 05:35:20;;;;;;;4.43;2.50;;;;;;;16.32;66.41;99407.94;5089569;28;20108;-67
2022/08/09 05:37:47;;;;;;;4.40;2.70;;;;;;;16.59;65.40;99407.63;5068850;28;20065;-67
2022/08/09 05:40:14;;;;;;;6.35;2.92;;;;;;;16.83;65.22;99408.63;5081478;28;20030;-68
2022/08/09 05:42:40;;;;;;;4.35;2.67;;;;;;;17.07;63.62;99409.59;5089869;28;20484;-69
2022/08/09 05:45:06;;;;;;;7.40;2.45;;;;;;;17.23;62.81;99389.78;5087318;28;20078;-68
2022/08/09 05:47:31;;;;;;;4.43;2.30;;;;;;;17.58;61.52;99404.63;5089098;28;20374;-64
2022/08/09 05:49:56;;;;;;;7.75;2.67;;;;;;;17.85;61.09;99405.09;5083699;28;20028;-68
2022/08/09 05:52:22;;;;;;;3.08;1.90;;;;;;;18.12;59.89;99417.25;5083867;28;20047;-66
2022/08/09 05:54:48;;;;;;;3.28;2.20;;;;;;;18.35;58.43;99410.94;5067412;28;20470;-61
2022/08/09 05:57:14;;;;;;;4.80;2.00;;;;;;;18.56;58.03;99414.13;5088163;28;20478;-67
2022/08/09 05:59:39;;;;;;;3.10;2.08;;;;;;;18.59;58.16;99417.22;5089999;28;20112;-74
2022/08/09 06:02:05;;;;;;;2.40;1.48;;;;;;;18.79;57.61;99403.16;5089070;28;20069;-74
2022/08/09 06:04:30;;;;;;;2.97;1.75;;;;;;;18.79;56.73;99399.59;5073172;28;20035;-73
2022/08/09 06:06:56;;;;;;;5.82;1.80;;;;;;;19.05;55.63;99406.44;5073266;28;20107;-73
2022/08/09 06:09:21;;;;;;;4.40;1.50;;;;;;;19.19;54.26;99406.97;5085516;28;20020;-71
2022/08/09 06:11:46;;;;;;;3.20;1.40;;;;;;;19.56;53.93;99414.78;5086342;28;20096;-70
2022/08/09 06:14:12;;;;;;;3.67;1.23;;;;;;;19.84;52.88;99422.16;5085155;28;20031;-68
2022/08/09 06:16:37;;;;;;;3.95;1.13;;;;;;;20.07;50.93;99432.16;5088333;28;20523;-72
2022/08/09 06:19:03;;;;;;;5.40;1.20;;;;;;;20.46;50.23;99407.44;5083458;28;20024;-73
2022/08/09 06:21:28;;;;;;;2.28;1.17;;;;;;;21.34;48.86;99421.22;5088728;28;20404;-70
2022/08/09 06:23:54;;;;;;;1.85;0.80;;;;;;;22.06;47.22;99406.19;5089869;28;20089;-74
2022/08/09 06:26:23;;;;;;;2.10;1.15;;;;;;;23.38;44.76;99413.53;5073126;28;20413;-72
2022/08/09 06:28:53;;;;;;;4.40;1.00;;;;;;;25.32;40.64;99418.84;5088717;28;20059;-68
2022/08/09 06:31:18;;;;;;;3.25;0.82;;;;;;;27.64;36.61;99409.84;5085706;28;20020;-70
2022/08/09 06:33:43;;;;;;;2.92;1.20;;;;;;;29.33;33.92;99399.22;5090338;28;20024;-69
2022/08/09 06:36:09;;;;;;;2.38;1.05;;;;;;;30.24;32.06;99398.19;5092063;28;20539;-69
2022/08/09 06:38:35;;;;;;;1.80;0.80;;;;;;;30.98;31.13;99405.09;5091316;28;20487;-70
2022/08/09 06:41:00;;;;;;;2.45;0.93;;;;;;;32.13;29.70;99418.88;5096600;28;20477;-71
2022/08/09 06:43:25;;;;;;;1.27;0.82;;;;;;;32.66;29.36;99404.41;5093869;28;20524;-72
2022/08/09 06:45:51;;;;;;;5.47;1.00;;;;;;;33.08;28.32;99403.72;5089713;28;20035;-73
2022/08/09 06:48:16;;;;;;;2.03;0.95;;;;;;;33.98;27.04;99413.63;5093821;28;20481;-70
2022/08/09 06:50:41;;;;;;;4.80;1.08;;;;;;;35.48;25.32;99401.88;5092777;28;20108;-68
2022/08/09 06:53:07;;;;;;;4.70;0.98;;;;;;;36.94;23.90;99395.03;5095969;28;20336;-72
2022/08/09 06:55:32;;;;;;;3.75;0.95;;;;;;;37.48;22.55;99402.78;5096497;28;20036;-72
2022/08/09 06:57:59;;;;;;;2.78;1.27;;;;;;;37.67;22.24;99416.91;5068016;28;20032;-69
2022/08/09 07:00:25;;;;;;;3.97;0.98;;;;;;;37.09;22.70;99416.78;5059678;28;20020;-68
2022/08/09 07:02:51;;;;;;;2.22;1.00;;;;;;;37.96;21.91;99414.69;5088740;28;20082;-68
2022/08/09 07:05:16;;;;;;;2.22;1.02;;;;;;;35.71;24.13;99390.94;5093784;28;20509;-67
2022/08/09 07:07:43;;;;;;;2.97;0.88;;;;;;;35.41;24.82;99410.09;5075909;28;20042;-69
2022/08/09 07:10:09;;;;;;;1.50;0.80;;;;;;;33.96;26.00;99419.59;5092685;28;20051;-66
2022/08/09 07:12:35;;;;;;;5.88;1.27;;;;;;;35.83;24.41;99421.03;5089524;28;20028;-66
2022/08/09 07:15:00;;;;;;;2.92;0.85;;;;;;;38.23;22.52;99423.31;5094715;28;20426;-66
2022/08/09 07:17:25;;;;;;;3.10;0.80;;;;;;;38.77;21.44;99402.50;5094956;28;20519;-71
2022/08/09 07:19:50;;;;;;;1.25;0.80;;;;;;;39.24;21.34;99409.75;5092040;28;20247;-73
2022/08/09 07:22:16;;;;;;;1.90;0.73;;;;;;;39.67;21.08;99431.03;5094757;28;20050;-72
2022/08/09 07:24:42;;;;;;;1.73;1.00;;;;;;;38.75;21.45;99419.88;5086664;28;20032;-70
2022/08/09 07:27:10;;;;;;;1.98;1.38;;;;;;;38.80;21.23;99410.22;5090807;28;20035;-70
2022/08/09 07:29:35;;;;;;;2.10;0.90;;;;;;;38.35;21.89;99435.28;5092068;28;20024;-73
2022/08/09 07:32:02;;;;;;;4.20;0.90;;;;;;;38.35;21.47;99426.78;5095772;28;20024;-70
2022/08/09 07:34:28;;;;;;;1.95;0.95;;;;;;;38.76;21.99;99417.88;5091943;28;20073;-70
2022/08/09 07:36:53;;;;;;;4.03;0.93;;;;;;;38.93;21.61;99437.16;5089892;28;20413;-72
2022/08/09 07:39:20;;;;;;;3.55;1.20;;;;;;;37.95;22.46;99432.84;5096499;28;20020;-70
2022/08/09 07:41:45;;;;;;;4.53;1.10;;;;;;;37.26;22.93;99444.63;5095401;28;20034;-70
2022/08/09 07:44:11;;;;;;;3.75;0.80;;;;;;;38.74;21.88;99437.22;5094720;28;20107;-72
2022/08/09 07:46:36;;;;;;;2.63;1.00;;;;;;;39.33;21.54;99430.16;5086207;28;20024;-73
2022/08/09 07:49:01;;;;;;;2.67;1.13;;;;;;;39.69;21.59;99443.97;5091601;28;20070;-70
2022/08/09 07:51:27;;;;;;;3.25;0.80;;;;;;;40.73;20.56;99449.69;5068241;28;20111;-69
2022/08/09 07:53:53;;;;;;;2.28;0.90;;;;;;;39.92;20.82;99446.75;5086002;28;20028;-69
2022/08/09 07:56:18;;;;;;;2.70;1.10;;;;;;;39.21;21.19;99436.00;5071481;28;20016;-71
2022/08/09 07:58:44;;;;;;;2.05;0.88;;;;;;;38.95;21.01;99443.25;5089536;28;20028;-68
2022/08/09 08:01:09;;;;;;;1.88;0.75;;;;;;;38.53;21.27;99441.28;5084119;28;20077;-70
2022/08/09 08:03:34;;;;;;;1.30;0.85;;;;;;;39.02;21.18;99436.91;5091976;28;20035;-71
2022/08/09 08:05:59;;;;;;;1.73;1.00;;;;;;;39.47;20.61;99440.03;5086538;28;20513;-68
2022/08/09 08:08:25;;;;;;;1.42;0.90;;;;;;;40.08;19.76;99439.66;5092157;28;20023;-68
2022/08/09 08:10:50;;;;;;;3.45;1.27;;;;;;;39.18;20.43;99439.59;5071734;28;20549;-67
2022/08/09 08:13:15;;;;;;;1.50;0.98;;;;;;;38.64;21.20;99432.19;5089057;28;20547;-72
2022/08/09 08:15:41;;;;;;;1.00;0.60;;;;;;;38.23;21.22;99440.28;5090912;28;20362;-72
2022/08/09 08:18:06;;;;;;;2.42;0.77;;;;;;;39.14;20.55;99414.03;5070055;28;20027;-72
2022/08/09 08:20:32;;;;;;;2.63;0.80;;;;;;;37.63;21.89;99447.09;5092903;28;20023;-72
2022/08/09 08:23:02;;;;;;;1.50;0.90;;;;;;;37.90;21.52;99433.97;5088923;28;20055;-71
2022/08/09 08:25:28;;;;;;;0.90;0.70;;;;;;;38.14;21.70;99421.53;5067640;28;20035;-73
2022/08/09 08:27:53;;;;;;;2.78;0.70;;;;;;;37.57;22.09;99428.81;5118354;22;20039;-76
2022/08/09 08:30:18;;;;;;;2.20;0.88;;;;;;;39.03;20.52;99435.72;5099094;27;20499;-75
2022/08/09 08:32:44;;;;;;;2.33;0.77;;;;;;;39.18;20.26;99439.59;5120428;27;20038;-75
2022/08/09 08:35:09;;;;;;;2.13;0.80;;;;;;;38.35;21.08;99434.47;5117128;27;20031;-76
2022/08/09 08:37:35;;;;;;;1.00;0.80;;;;;;;37.82;21.30;99437.00;5104549;28;20381;-75
2022/08/09 08:40:04;;;;;;;0.93;0.75;;;;;;;37.46;22.23;99439.00;5102887;28;20039;-76
2022/08/09 08:42:31;;;;;;;1.80;0.70;;;;;;;38.44;20.82;99437.91;5106104;28;20080;-74
2022/08/09 08:44:58;;;;;;;1.15;0.80;;;;;;;38.80;20.80;99435.69;5105139;28;20096;-75
2022/08/09 08:47:26;;;;;;;1.93;1.00;;;;;;;38.20;21.54;99435.38;5098212;28;20023;-75
2022/08/09 08:49:53;;;;;;;1.08;0.80;;;;;;;39.11;20.56;99436.63;5104663;28;20031;-72
2022/08/09 08:52:21;;;;;;;1.35;0.95;;;;;;;39.37;20.53;99441.50;5103456;28;20027;-71
2022/08/09 08:54:47;;;;;;;2.17;0.90;;;;;;;38.37;20.96;99429.25;5100534;28;20028;-71
2022/08/09 08:57:13;;;;;;;0.98;0.77;;;;;;;38.11;21.59;99433.59;5105847;28;20523;-72
2022/08/09 08:59:38;;;;;;;2.03;0.98;;;;;;;37.91;21.65;99429.97;5099462;28;20027;-71
2022/08/09 09:02:06;;;;;;;1.67;0.88;;;;;;;37.89;21.98;99428.69;5097736;28;20034;-71
2022/08/09 09:04:32;;;;;;;2.75;0.93;;;;;;;37.52;21.96;99443.25;5105127;28;20105;-71
2022/08/09 09:07:01;;;;;;;4.72;1.23;;;;;;;36.84;22.42;99433.09;5105201;28;20028;-72
2022/08/09 09:09:28;;;;;;;1.33;0.80;;;;;;;37.42;21.89;99446.59;5104046;28;20052;-72
2022/08/09 09:11:57;;;;;;;5.05;1.00;;;;;;;37.62;21.64;99439.00;5106057;28;20114;-72
2022/08/09 09:14:24;;;;;;;2.85;1.00;;;;;;;37.55;21.62;99442.50;5104298;28;20100;-72
2022/08/09 09:16:49;;;;;;;3.30;0.80;;;;;;;37.40;21.76;99441.31;5098224;28;20031;-71
2022/08/09 09:19:15;;;;;;;1.85;0.90;;;;;;;37.30;21.95;99444.69;5104261;28;20034;-71
2022/08/09 09:21:57;;;;;;;1.48;0.80;;;;;;;38.07;21.13;99444.03;5094721;28;20035;-72
2022/08/09 09:24:28;;;;;;;1.25;0.93;;;;;;;38.37;20.95;99446.22;5099552;28;20492;-72
2022/08/09 09:26:56;;;;;;;1.50;0.93;;;;;;;38.06;20.77;99436.72;5100086;28;20031;-71
2022/08/09 09:29:30;;;;;;;1.77;0.90;;;;;;;37.24;21.21;99418.78;5099003;28;20020;-71
2022/08/09 09:31:55;;;;;;;2.13;1.05;;;;;;;37.38;21.08;99425.94;5098291;28;20051;-71
2022/08/09 09:34:21;;;;;;;3.30;0.95;;;;;;;36.63;21.80;99427.72;5095601;28;20023;-71
2022/08/09 09:36:46;;;;;;;2.08;1.00;;;;;;;36.48;21.37;99422.84;5096360;28;20035;-71
2022/08/09 09:39:11;;;;;;;2.40;1.10;;;;;;;37.15;21.35;99423.78;5094276;28;20063;-71
2022/08/09 09:41:37;;;;;;;2.75;1.10;;;;;;;35.82;22.73;99429.81;5094706;28;20035;-71
2022/08/09 09:44:05;;;;;;;1.42;1.00;;;;;;;36.52;22.28;99412.47;5097589;28;20028;-71
2022/08/09 09:46:35;;;;;;;2.83;1.10;;;;;;;36.99;21.40;99417.31;5101247;28;20055;-71
2022/08/09 09:49:07;;;;;;;1.75;0.82;;;;;;;36.88;21.63;99396.50;5092263;28;20039;-71
2022/08/09 09:51:35;;;;;;;2.75;1.00;;;;;;;36.91;21.74;99421.16;5101840;28;20039;-72
2022/08/09 09:54:10;;;;;;;2.38;1.00;;;;;;;36.63;21.64;99422.09;5105240;28;20452;-71
2022/08/09 09:56:42;;;;;;;1.70;1.00;;;;;;;37.69;21.47;99425.84;5103283;28;20118;-72
2022/08/09 09:59:09;;;;;;;2.95;1.20;;;;;;;38.22;21.53;99421.69;5097323;28;20055;-72
2022/08/09 10:01:35;;;;;;;3.13;1.17;;;;;;;37.83;20.90;99425.31;5097000;28;20123;-72
2022/08/09 10:04:01;;;;;;;3.60;0.90;;;;;;;38.05;21.15;99418.16;5100548;28;20476;-72
2022/08/09 10:06:29;;;;;;;2.42;0.93;;;;;;;38.52;20.87;99419.06;5095349;28;20081;-72
2022/08/09 10:09:00;;;;;;;5.90;1.03;;;;;;;39.15;19.86;99414.88;5097627;28;20019;-72
2022/08/09 10:11:28;;;;;;;3.00;0.90;;;;;;;38.25;20.85;99416.09;5095088;28;20573;-72
2022/08/09 10:13:54;;;;;;;1.75;0.80;;;;;;;39.65;19.39;99407.13;5102236;28;20040;-72
2022/08/09 10:16:36;;;;;;;3.72;0.90;;;;;;;39.97;19.26;99406.72;5079276;28;20450;-72
2022/08/09 10:19:07;;;;;;;2.47;0.88;;;;;;;39.32;19.56;99405.81;5099995;28;20023;-72
2022/08/09 10:21:34;;;;;;;1.17;0.80;;;;;;;40.09;18.67;99403.63;5093966;28;20046;-72
2022/08/09 10:24:03;;;;;;;1.42;0.85;;;;;;;39.24;19.17;99406.91;5097588;28;20032;-72
2022/08/09 10:26:29;;;;;;;2.30;0.98;;;;;;;39.76;18.84;99408.06;5097931;28;20020;-72
2022/08/09 10:28:56;;;;;;;2.22;0.85;;;;;;;39.88;18.68;99405.00;5096459;28;20032;-72
2022/08/09 10:31:22;;;;;;;0.82;0.60;;;;;;;39.72;18.88;99392.22;5110327;28;20042;-72
2022/08/09 10:33:47;;;;;;;1.25;0.93;;;;;;;39.76;19.01;99393.91;5104285;28;22007;-72
2022/08/09 10:36:14;;;;;;;1.63;0.90;;;;;;;41.32;17.82;99389.34;5103131;28;20019;-72
2022/08/09 10:38:43;;;;;;;6.50;1.00;;;;;;;39.86;18.48;99387.59;5103399;28;20020;-72
2022/08/09 10:41:08;;;;;;;;;;;;;;;39.55;18.75;99390.81;5101804;28;20065;-72
2022/08/09 10:43:35;;;;;;;1.58;0.82;;;;;;;39.16;18.49;99382.53;5094815;28;20355;-72
2022/08/09 10:46:15;;;;;;;2.03;1.17;;;;;;;38.07;19.44;99387.53;5091932;28;20492;-72
2022/08/09 10:48:54;;;;;;;3.30;0.85;;;;;;;39.93;18.84;99386.03;5095683;28;20110;-72
2022/08/09 10:51:31;;;;;;;1.80;0.80;;;;;;;39.85;18.23;99390.78;5096271;28;20027;-71
2022/08/09 10:54:09;;;;;;;2.05;0.77;;;;;;;38.73;18.78;99376.19;5095989;28;20028;-72
2022/08/09 10:56:38;;;;;;;2.67;1.20;;;;;;;39.69;18.44;99385.31;5094599;28;20028;-72
2022/08/09 10:59:25;;;;;;;2.83;1.00;;;;;;;40.67;17.58;99380.34;5095764;28;20031;-72
2022/08/09 11:01:51;;;;;;;2.15;1.05;;;;;;;40.90;17.16;99370.78;5098914;28;20057;-72
2022/08/09 11:04:37;;;;;;;5.15;0.90;;;;;;;40.54;18.01;99373.31;5077913;28;20057;-72
2022/08/09 11:07:02;;;;;;;1.80;0.80;;;;;;;41.07;18.07;99374.97;5097539;28;20038;-72
2022/08/09 11:09:36;;;;;;;2.23;0.90;;;;;;;39.91;18.46;99380.75;5081171;28;20469;-72
2022/08/09 11:12:23;;;;;;;3.70;0.98;;;;;;;40.28;18.26;99377.94;5099145;28;20277;-72
2022/08/09 11:14:56;;;;;;;0.98;0.88;;;;;;;40.83;17.77;99374.41;5098223;28;20083;-73
2022/08/09 11:17:21;;;;;;;2.25;0.80;;;;;;;40.31;17.93;99368.66;5103954;28;20145;-73
2022/08/09 11:19:51;;;;;;;2.45;0.70;;;;;;;39.59;18.52;99377.47;5098802;28;20111;-72
2022/08/09 11:22:16;;;;;;;1.48;0.80;;;;;;;38.73;19.28;99373.38;5105664;28;20023;-72
2022/08/09 11:25:06;;;;;;;1.42;0.80;;;;;;;39.98;18.37;99377.19;5096518;28;20386;-72
2022/08/09 11:27:35;;;;;;;1.60;0.57;;;;;;;40.60;17.63;99371.75;5087532;28;20095;-72
2022/08/09 11:30:01;;;;;;;1.20;0.63;;;;;;;40.62;17.38;99375.00;5101897;28;20031;-72
2022/08/09 11:32:39;;;;;;;2.25;1.05;;;;;;;40.57;17.78;99375.38;5103144;28;20429;-72
2022/08/09 11:35:35;;;;;;;1.67;0.88;;;;;;;41.69;17.15;99365.63;5097741;28;20062;-70
2022/08/09 11:38:16;;;;;;;1.55;0.70;;;;;;;40.60;17.33;99360.41;5099785;28;20165;-70